Time;durP1;ratioP1;P1;durP2;ratioP2;P2;SDS_P1;SDS_P2;PMS_P1;PMS_P2;Temp;Humidity;BMP_temperature;BMP_pressure;BME280_temperature;BME280_humidity;BME280_pressure;Samples;Min_cycle;Max_cycle;Signal;HPM_P1;HPM_P2
2021/09/12 00:01:37;;;;;;;;;;;19.40;93.20;;;;;;4303664;33;45916;-81
2021/09/12 00:04:16;;;;;;;;;;;19.40;93.10;;;;;;4317157;33;43875;-81
2021/09/12 00:06:48;;;;;;;;;;;19.40;93.10;;;;;;4317762;33;19998;-81
2021/09/12 00:09:23;;;;;;;;;;;19.40;93.20;;;;;;4316712;33;43793;-81
2021/09/12 00:11:56;;;;;;;;;;;19.40;93.20;;;;;;4315486;33;43261;-82
2021/09/12 00:14:34;;;;;;;;;;;19.40;93.20;;;;;;4317074;33;43210;-81
2021/09/12 00:17:06;;;;;;;;;;;19.40;93.10;;;;;;4315738;33;46003;-81
2021/09/12 00:19:39;;;;;;;;;;;19.40;93.10;;;;;;4316817;33;44581;-82
2021/09/12 00:22:06;;;;;;;;;;;19.40;93.10;;;;;;4316811;33;43872;-82
2021/09/12 00:24:42;;;;;;;;;;;19.40;93.20;;;;;;4303483;33;43482;-81
2021/09/12 00:27:12;;;;;;;;;;;19.30;93.10;;;;;;4315085;33;43284;-81
2021/09/12 00:29:42;;;;;;;;;;;19.30;93.10;;;;;;4303638;33;43896;-82
2021/09/12 00:32:09;;;;;;;;;;;19.30;93.10;;;;;;4302948;33;44362;-82
2021/09/12 00:34:47;;;;;;;;;;;19.30;93.10;;;;;;4316128;33;43539;-82
2021/09/12 00:37:22;;;;;;;;;;;19.30;93.10;;;;;;4317386;33;19998;-82
2021/09/12 00:39:57;;;;;;;;;;;19.30;93.10;;;;;;4315588;33;44235;-80
2021/09/12 00:42:25;;;;;;;;;;;19.30;93.10;;;;;;4303452;33;45820;-82
2021/09/12 00:44:53;;;;;;;;;;;19.30;93.10;;;;;;4316083;33;43477;-82
2021/09/12 00:47:23;;;;;;;;;;;19.20;93.10;;;;;;4315436;33;46314;-81
2021/09/12 00:50:01;;;;;;;;;;;19.30;93.10;;;;;;4302823;33;42596;-81
2021/09/12 00:52:35;;;;;;;;;;;19.30;93.10;;;;;;4316526;33;43297;-81
2021/09/12 00:55:08;;;;;;;;;;;19.20;93.10;;;;;;4315375;33;43864;-82
2021/09/12 00:57:40;;;;;;;;;;;19.20;93.00;;;;;;4315131;33;45738;-82
2021/09/12 01:00:13;;;;;;;;;;;19.20;93.10;;;;;;4316463;33;44277;-82
2021/09/12 01:02:46;;;;;;;;;;;19.20;93.00;;;;;;4314934;33;43176;-82
2021/09/12 01:05:19;;;;;;;;;;;19.20;93.10;;;;;;4316243;33;46099;-82
2021/09/12 01:07:52;;;;;;;;;;;19.20;93.10;;;;;;4315772;33;19997;-83
2021/09/12 01:10:24;;;;;;;;;;;19.20;93.00;;;;;;4302519;33;44672;-83
2021/09/12 01:12:53;;;;;;;;;;;19.20;93.00;;;;;;4315895;33;43206;-82
2021/09/12 01:15:29;;;;;;;;;;;19.20;93.00;;;;;;4303024;33;42834;-82
2021/09/12 01:18:05;;;;;;;;;;;19.10;93.00;;;;;;4314770;33;43934;-82
2021/09/12 01:20:37;;;;;;;;;;;19.10;93.00;;;;;;4314703;33;42756;-82
2021/09/12 01:23:06;;;;;;;;;;;19.10;93.00;;;;;;4315636;33;43520;-83
2021/09/12 01:25:37;;;;;;;;;;;19.10;93.00;;;;;;4316043;33;43647;-83
2021/09/12 01:28:12;;;;;;;;;;;19.10;93.00;;;;;;4316004;33;44575;-83
2021/09/12 01:30:44;;;;;;;;;;;19.10;93.00;;;;;;4316065;33;43893;-82
2021/09/12 01:33:15;;;;;;;;;;;19.10;93.00;;;;;;4302627;33;43613;-82
2021/09/12 01:35:47;;;;;;;;;;;19.10;93.00;;;;;;4302376;33;45835;-83
2021/09/12 01:38:17;;;;;;;;;;;19.00;93.00;;;;;;4302824;33;43879;-82
2021/09/12 01:40:50;;;;;;;;;;;19.10;93.00;;;;;;4303250;33;44216;-82
2021/09/12 01:43:26;;;;;;;;;;;19.10;93.00;;;;;;4315863;33;45797;-83
2021/09/12 01:45:53;;;;;;;;;;;19.00;93.00;;;;;;4315848;33;45564;-82
2021/09/12 01:48:23;;;;;;;;;;;19.00;92.90;;;;;;4316054;33;44331;-83
2021/09/12 01:50:57;;;;;;;;;;;19.00;92.90;;;;;;4302673;33;44120;-83
2021/09/12 01:53:32;;;;;;;;;;;19.00;92.90;;;;;;4302835;33;44244;-82
2021/09/12 01:56:00;;;;;;;;;;;19.00;92.90;;;;;;4302824;33;42731;-83
2021/09/12 01:58:32;;;;;;;;;;;19.00;92.80;;;;;;4315390;33;44089;-83
2021/09/12 02:00:59;;;;;;;;;;;18.90;92.80;;;;;;4315761;33;43027;-82
2021/09/12 02:03:32;;;;;;;;;;;18.90;92.80;;;;;;4315498;33;44771;-82
2021/09/12 02:06:00;;;;;;;;;;;18.90;92.70;;;;;;4314656;33;44808;-83
2021/09/12 02:08:33;;;;;;;;;;;18.90;92.80;;;;;;4315320;33;20006;-82
2021/09/12 02:11:03;;;;;;;;;;;18.90;92.80;;;;;;4302262;33;44637;-83
2021/09/12 02:13:39;;;;;;;;;;;18.90;92.70;;;;;;4302760;33;43544;-82
2021/09/12 02:16:09;;;;;;;;;;;18.80;92.70;;;;;;4302538;33;45071;-82
2021/09/12 02:18:42;;;;;;;;;;;18.80;92.70;;;;;;4302318;33;43355;-83
2021/09/12 02:21:14;;;;;;;;;;;18.80;92.70;;;;;;4315831;33;45128;-83
2021/09/12 02:23:42;;;;;;;;;;;18.80;92.60;;;;;;4315501;33;44223;-83
2021/09/12 02:26:11;;;;;;;;;;;18.80;92.60;;;;;;4315548;33;43088;-82
2021/09/12 02:28:38;;;;;;;;;;;18.80;92.50;;;;;;4315102;33;45151;-82
2021/09/12 02:31:11;;;;;;;;;;;18.80;92.50;;;;;;4315105;33;43341;-82
2021/09/12 02:33:38;;;;;;;;;;;18.80;92.50;;;;;;4315690;33;45253;-82
2021/09/12 02:36:11;;;;;;;;;;;18.80;92.50;;;;;;4302833;33;43147;-81
2021/09/12 02:38:42;;;;;;;;;;;18.80;92.50;;;;;;4315100;33;20061;-81
2021/09/12 02:41:14;;;;;;;;;;;18.70;92.50;;;;;;4314060;33;43615;-81
2021/09/12 02:43:47;;;;;;;;;;;18.70;92.50;;;;;;4302500;33;44300;-82
2021/09/12 02:46:17;;;;;;;;;;;18.70;92.50;;;;;;4314279;33;42295;-82
2021/09/12 02:48:46;;;;;;;;;;;18.60;92.40;;;;;;4314961;33;44232;-82
2021/09/12 02:51:19;;;;;;;;;;;18.70;92.40;;;;;;4303019;33;43410;-82
2021/09/12 02:53:51;;;;;;;;;;;18.70;92.50;;;;;;4304480;33;44728;-82
2021/09/12 02:56:22;;;;;;;;;;;18.60;92.40;;;;;;4316848;33;45721;-82
2021/09/12 02:58:54;;;;;;;;;;;18.60;92.40;;;;;;4317963;33;43478;-82
2021/09/12 03:01:21;;;;;;;;;;;18.60;92.40;;;;;;4317657;33;43052;-82
2021/09/12 03:03:54;;;;;;;;;;;18.60;92.40;;;;;;4317821;33;42926;-82
2021/09/12 03:06:27;;;;;;;;;;;18.50;92.40;;;;;;4316367;33;43780;-81
2021/09/12 03:09:00;;;;;;;;;;;18.50;92.40;;;;;;4317477;33;19998;-81
2021/09/12 03:11:29;;;;;;;;;;;18.50;92.40;;;;;;4317513;33;43109;-82
2021/09/12 03:13:56;;;;;;;;;;;18.50;92.40;;;;;;4317412;33;43289;-82
2021/09/12 03:16:24;;;;;;;;;;;18.50;92.50;;;;;;4317468;33;44575;-81
2021/09/12 03:18:56;;;;;;;;;;;18.40;92.50;;;;;;4316316;33;43930;-82
2021/09/12 03:21:23;;;;;;;;;;;18.40;92.50;;;;;;4316647;33;44334;-82
2021/09/12 03:23:51;;;;;;;;;;;18.50;92.50;;;;;;4304377;33;43568;-82
2021/09/12 03:26:19;;;;;;;;;;;18.40;92.40;;;;;;4316266;33;43841;-82
2021/09/12 03:28:56;;;;;;;;;;;18.40;92.50;;;;;;4304706;33;46087;-82
2021/09/12 03:31:26;;;;;;;;;;;18.40;92.50;;;;;;4316595;33;44203;-82
2021/09/12 03:34:01;;;;;;;;;;;18.40;92.50;;;;;;4304675;33;45440;-81
2021/09/12 03:36:31;;;;;;;;;;;18.40;92.60;;;;;;4304061;33;44281;-82
2021/09/12 03:39:01;;;;;;;;;;;18.30;92.60;;;;;;4305026;33;20052;-81
2021/09/12 03:41:31;;;;;;;;;;;18.30;92.60;;;;;;4315917;33;46024;-81
2021/09/12 03:44:04;;;;;;;;;;;18.30;92.60;;;;;;4316313;33;42537;-81
2021/09/12 03:46:34;;;;;;;;;;;18.30;92.70;;;;;;4317284;33;43588;-81
2021/09/12 03:49:07;;;;;;;;;;;18.30;92.70;;;;;;4304208;33;43866;-81
2021/09/12 03:51:40;;;;;;;;;;;18.30;92.70;;;;;;4316088;33;43492;-81
2021/09/12 03:54:07;;;;;;;;;;;18.30;92.70;;;;;;4317408;33;43913;-81
2021/09/12 03:56:40;;;;;;;;;;;18.30;92.70;;;;;;4316970;33;45747;-81
2021/09/12 03:59:15;;;;;;;;;;;18.30;92.70;;;;;;4317019;33;46098;-81
2021/09/12 04:01:45;;;;;;;;;;;18.30;92.70;;;;;;4303407;33;44898;-81
2021/09/12 04:04:18;;;;;;;;;;;18.30;92.70;;;;;;4304274;33;44608;-81
2021/09/12 04:06:46;;;;;;;;;;;18.30;92.70;;;;;;4303898;33;45870;-81
2021/09/12 04:09:14;;;;;;;;;;;18.30;92.70;;;;;;4316665;33;43501;-81
2021/09/12 04:11:46;;;;;;;;;;;18.30;92.70;;;;;;4315846;33;43291;-81
2021/09/12 04:14:16;;;;;;;;;;;18.30;92.70;;;;;;4304134;33;43707;-81
2021/09/12 04:16:49;;;;;;;;;;;18.30;92.70;;;;;;4316437;33;43763;-81
2021/09/12 04:19:16;;;;;;;;;;;18.30;92.80;;;;;;4316930;33;43525;-81
2021/09/12 04:21:43;;;;;;;;;;;18.30;92.80;;;;;;4303727;33;43145;-81
2021/09/12 04:24:13;;;;;;;;;;;18.30;92.80;;;;;;4316770;33;44079;-81
2021/09/12 04:26:40;;;;;;;;;;;18.30;92.80;;;;;;4303166;33;44563;-81
2021/09/12 04:29:11;;;;;;;;;;;18.30;92.80;;;;;;4316400;33;43177;-81
2021/09/12 04:31:38;;;;;;;;;;;18.30;92.80;;;;;;4315590;33;42731;-82
2021/09/12 04:34:08;;;;;;;;;;;18.30;92.80;;;;;;4316674;33;44980;-81
2021/09/12 04:36:41;;;;;;;;;;;18.30;92.80;;;;;;4316622;33;44294;-81
2021/09/12 04:39:11;;;;;;;;;;;18.30;92.80;;;;;;4316490;33;19999;-81
2021/09/12 04:41:39;;;;;;;;;;;18.30;92.80;;;;;;4303455;33;42444;-81
2021/09/12 04:44:09;;;;;;;;;;;18.20;92.80;;;;;;4316652;33;43858;-81
2021/09/12 04:46:40;;;;;;;;;;;18.20;92.80;;;;;;4302992;33;45974;-81
2021/09/12 04:49:15;;;;;;;;;;;18.20;92.80;;;;;;4315981;33;43221;-81
2021/09/12 04:51:48;;;;;;;;;;;18.20;92.90;;;;;;4316394;33;43828;-80
2021/09/12 04:54:15;;;;;;;;;;;18.20;92.80;;;;;;4314922;33;42933;-80
2021/09/12 04:56:42;;;;;;;;;;;18.20;92.80;;;;;;4316371;33;43419;-81
2021/09/12 04:59:17;;;;;;;;;;;18.10;92.80;;;;;;4316219;33;43390;-80
2021/09/12 05:01:49;;;;;;;;;;;18.10;92.80;;;;;;4315943;33;44493;-81
2021/09/12 05:04:17;;;;;;;;;;;18.10;92.70;;;;;;4302967;33;42581;-81
2021/09/12 05:06:48;;;;;;;;;;;18.10;92.70;;;;;;4303051;33;43292;-80
2021/09/12 05:09:20;;;;;;;;;;;18.10;92.60;;;;;;4316563;33;20040;-81
2021/09/12 05:11:53;;;;;;;;;;;18.10;92.60;;;;;;4315921;33;42297;-80
2021/09/12 05:14:26;;;;;;;;;;;18.10;92.60;;;;;;4315853;33;44223;-80
2021/09/12 05:16:59;;;;;;;;;;;18.00;92.60;;;;;;4316308;33;44342;-80
2021/09/12 05:19:29;;;;;;;;;;;18.00;92.60;;;;;;4315082;33;43478;-81
2021/09/12 05:21:56;;;;;;;;;;;18.00;92.60;;;;;;4302531;33;44088;-81
2021/09/12 05:24:28;;;;;;;;;;;18.00;92.60;;;;;;4302903;33;42529;-80
2021/09/12 05:26:55;;;;;;;;;;;18.00;92.60;;;;;;4302971;33;43464;-81
2021/09/12 05:29:23;;;;;;;;;;;17.90;92.50;;;;;;4315560;33;43192;-81
2021/09/12 05:31:51;;;;;;;;;;;17.90;92.50;;;;;;4302998;33;43399;-80
2021/09/12 05:34:18;;;;;;;;;;;17.90;92.60;;;;;;4302990;33;44063;-81
2021/09/12 05:36:46;;;;;;;;;;;17.80;92.50;;;;;;4314457;33;43530;-80
2021/09/12 05:39:16;;;;;;;;;;;17.80;92.90;;;;;;4315394;33;42992;-81
2021/09/12 05:41:43;;;;;;;;;;;17.80;92.50;;;;;;4314340;33;44614;-80
2021/09/12 05:44:12;;;;;;;;;;;17.80;92.50;;;;;;4315597;33;43908;-80
2021/09/12 05:46:39;;;;;;;;;;;17.80;92.50;;;;;;4316193;33;43734;-81
2021/09/12 05:49:12;;;;;;;;;;;17.80;92.50;;;;;;4302381;33;42968;-80
2021/09/12 05:51:42;;;;;;;;;;;17.80;92.50;;;;;;4314840;33;45121;-81
2021/09/12 05:54:09;;;;;;;;;;;17.80;92.50;;;;;;4302371;33;44196;-80
2021/09/12 05:56:36;;;;;;;;;;;17.80;92.50;;;;;;4302372;33;44304;-80
2021/09/12 05:59:03;;;;;;;;;;;17.80;92.50;;;;;;4315545;33;43344;-80
2021/09/12 06:01:30;;;;;;;;;;;17.80;92.50;;;;;;4314263;33;43482;-81
2021/09/12 06:04:01;;;;;;;;;;;17.80;92.50;;;;;;4315822;33;45763;-80
2021/09/12 06:06:28;;;;;;;;;;;17.80;92.50;;;;;;4315729;33;42850;-80
2021/09/12 06:08:55;;;;;;;;;;;17.80;92.60;;;;;;4314365;33;42827;-80
2021/09/12 06:11:22;;;;;;;;;;;17.80;92.50;;;;;;4314273;33;43376;-81
2021/09/12 06:13:58;;;;;;;;;;;17.80;92.50;;;;;;4302497;33;43222;-81
2021/09/12 06:16:25;;;;;;;;;;;17.80;92.60;;;;;;4314655;33;44654;-80
2021/09/12 06:18:55;;;;;;;;;;;17.80;92.50;;;;;;4302134;33;42535;-81
2021/09/12 06:21:24;;;;;;;;;;;17.80;92.50;;;;;;4302614;33;43876;-80
2021/09/12 06:23:52;;;;;;;;;;;17.80;92.50;;;;;;4315332;33;45100;-80
2021/09/12 06:26:22;;;;;;;;;;;17.80;92.50;;;;;;4315556;33;43177;-80
2021/09/12 06:28:53;;;;;;;;;;;17.80;92.50;;;;;;4305538;33;44902;-80
2021/09/12 06:31:23;;;;;;;;;;;17.80;92.80;;;;;;4305391;33;43204;-80
2021/09/12 06:33:50;;;;;;;;;;;17.70;92.40;;;;;;4318431;33;42589;-80
2021/09/12 06:36:18;;;;;;;;;;;17.80;92.40;;;;;;4304907;33;43110;-80
2021/09/12 06:38:45;;;;;;;;;;;17.80;92.40;;;;;;4318099;33;43242;-80
2021/09/12 06:41:18;;;;;;;;;;;17.80;92.40;;;;;;4318079;33;43418;-80
2021/09/12 06:43:51;;;;;;;;;;;17.70;92.40;;;;;;4317295;33;43859;-80
2021/09/12 06:46:21;;;;;;;;;;;17.80;92.40;;;;;;4305034;33;44269;-80
2021/09/12 06:48:56;;;;;;;;;;;17.70;92.40;;;;;;4305169;33;45643;-81
2021/09/12 06:51:24;;;;;;;;;;;17.80;92.50;;;;;;4318008;33;43807;-81
2021/09/12 06:53:53;;;;;;;;;;;17.80;92.50;;;;;;4318021;33;42701;-80
2021/09/12 06:56:23;;;;;;;;;;;17.80;92.50;;;;;;4317990;33;43311;-81
2021/09/12 06:58:58;;;;;;;;;;;17.70;92.50;;;;;;4304797;33;45531;-81
2021/09/12 07:01:25;;;;;;;;;;;17.80;92.50;;;;;;4316442;33;43254;-80
2021/09/12 07:03:55;;;;;;;;;;;17.80;92.50;;;;;;4304391;33;44088;-80
2021/09/12 07:06:33;;;;;;;;;;;17.70;92.50;;;;;;4318025;33;43959;-80
2021/09/12 07:09:11;;;;;;;;;;;17.70;92.50;;;;;;4317912;33;43901;-80
2021/09/12 07:11:43;;;;;;;;;;;17.70;92.40;;;;;;4316969;33;43863;-81
2021/09/12 07:14:16;;;;;;;;;;;17.70;92.50;;;;;;4316568;33;42870;-80
2021/09/12 07:16:46;;;;;;;;;;;17.70;92.50;;;;;;4316821;33;44147;-81
2021/09/12 07:19:19;;;;;;;;;;;17.70;92.50;;;;;;4304572;33;44223;-81
2021/09/12 07:21:46;;;;;;;;;;;17.70;92.50;;;;;;4316652;33;43405;-80
2021/09/12 07:24:21;;;;;;;;;;;17.70;92.50;;;;;;4317548;33;44073;-80
2021/09/12 07:26:59;;;;;;;;;;;17.70;92.50;;;;;;4316498;33;46106;-80
2021/09/12 07:29:32;;;;;;;;;;;17.70;92.50;;;;;;4317436;33;44129;-80
2021/09/12 07:31:59;;;;;;;;;;;17.70;92.50;;;;;;4304043;33;44631;-80
2021/09/12 07:34:29;;;;;;;;;;;17.70;92.50;;;;;;4304692;33;43169;-80
2021/09/12 07:37:02;;;;;;;;;;;17.70;92.50;;;;;;4303687;33;43237;-80
2021/09/12 07:39:37;;;;;;;;;;;17.70;92.50;;;;;;4304182;33;42928;-80
2021/09/12 07:42:04;;;;;;;;;;;17.70;92.50;;;;;;4317415;33;45580;-80
2021/09/12 07:44:37;;;;;;;;;;;17.70;92.50;;;;;;4304181;33;42890;-80
2021/09/12 07:47:05;;;;;;;;;;;17.70;92.60;;;;;;4303710;33;45552;-80
2021/09/12 07:49:38;;;;;;;;;;;17.70;92.60;;;;;;4315829;33;44603;-80
2021/09/12 07:52:10;;;;;;;;;;;17.60;92.60;;;;;;4315761;33;43246;-80
2021/09/12 07:54:43;;;;;;;;;;;17.70;92.70;;;;;;4304055;33;44121;-80
2021/09/12 07:57:18;;;;;;;;;;;17.60;92.70;;;;;;4316081;33;44322;-81
2021/09/12 07:59:48;;;;;;;;;;;17.60;92.70;;;;;;4304062;33;44472;-80
2021/09/12 08:02:21;;;;;;;;;;;17.60;92.70;;;;;;4316614;33;43978;-80
2021/09/12 08:04:56;;;;;;;;;;;17.60;92.60;;;;;;4315904;33;42534;-80
2021/09/12 08:07:26;;;;;;;;;;;17.70;92.70;;;;;;4316638;33;42704;-81
2021/09/12 08:09:53;;;;;;;;;;;17.60;92.60;;;;;;4315893;33;44839;-80
2021/09/12 08:12:28;;;;;;;;;;;17.60;92.60;;;;;;4316076;33;43284;-80
2021/09/12 08:14:57;;;;;;;;;;;17.60;92.50;;;;;;4315570;33;42908;-80
2021/09/12 08:17:24;;;;;;;;;;;17.70;92.60;;;;;;4315420;33;43238;-80
2021/09/12 08:20:00;;;;;;;;;;;17.70;92.60;;;;;;4303260;33;45680;-80
2021/09/12 08:22:29;;;;;;;;;;;17.60;92.60;;;;;;4315753;33;43181;-80
2021/09/12 08:25:05;;;;;;;;;;;17.60;92.60;;;;;;4316798;33;43193;-80
2021/09/12 08:27:35;;;;;;;;;;;17.60;92.60;;;;;;4316941;33;43655;-80
2021/09/12 08:30:11;;;;;;;;;;;17.60;92.50;;;;;;4315753;33;44011;-80
2021/09/12 08:32:43;;;;;;;;;;;17.60;92.50;;;;;;4316587;33;44973;-81
2021/09/12 08:35:19;;;;;;;;;;;17.60;92.60;;;;;;4316391;33;44714;-80
2021/09/12 08:37:46;;;;;;;;;;;17.60;92.60;;;;;;4303694;33;44036;-80
2021/09/12 08:40:16;;;;;;;;;;;17.60;92.60;;;;;;4303552;33;44559;-80
2021/09/12 08:42:43;;;;;;;;;;;17.60;92.60;;;;;;4316015;33;45344;-80
2021/09/12 08:45:14;;;;;;;;;;;17.60;92.50;;;;;;4317534;33;20006;-81
2021/09/12 08:47:49;;;;;;;;;;;17.60;92.50;;;;;;4315283;33;42295;-80
2021/09/12 08:50:16;;;;;;;;;;;17.60;92.50;;;;;;4315137;33;46011;-80
2021/09/12 08:52:51;;;;;;;;;;;17.60;92.50;;;;;;4316465;33;43995;-80
2021/09/12 08:55:24;;;;;;;;;;;17.60;92.50;;;;;;4316334;33;45089;-80
2021/09/12 08:57:59;;;;;;;;;;;17.60;92.50;;;;;;4303245;33;45999;-80
2021/09/12 09:00:29;;;;;;;;;;;17.60;92.50;;;;;;4315109;33;44621;-80
2021/09/12 09:03:07;;;;;;;;;;;17.60;92.50;;;;;;4315697;33;44187;-80
2021/09/12 09:05:40;;;;;;;;;;;17.60;92.40;;;;;;4316370;33;44952;-80
2021/09/12 09:08:22;;;;;;;;;;;17.60;92.40;;;;;;4315183;33;45142;-80
2021/09/12 09:10:57;;;;;;;;;;;17.60;92.40;;;;;;4314852;33;44285;-80
2021/09/12 09:13:34;;;;;;;;;;;17.70;92.40;;;;;;4314962;33;42902;-80
2021/09/12 09:16:08;;;;;;;;;;;17.70;92.70;;;;;;4315681;33;19998;-81
2021/09/12 09:18:45;;;;;;;;;;;17.70;92.20;;;;;;4314685;33;42675;-80
2021/09/12 09:21:27;;;;;;;;;;;17.70;92.20;;;;;;4314986;33;43115;-80
2021/09/12 09:24:06;;;;;;;;;;;17.70;92.20;;;;;;4315124;33;44522;-80
2021/09/12 09:26:46;;;;;;;;;;;17.70;92.20;;;;;;4316204;33;44352;-80
2021/09/12 09:29:32;;;;;;;;;;;17.70;92.20;;;;;;4314963;33;43305;-80
2021/09/12 09:32:04;;;;;;;;;;;17.70;92.20;;;;;;4315157;33;43927;-80
2021/09/12 09:34:32;;;;;;;;;;;17.70;92.00;;;;;;4315201;33;44169;-81
2021/09/12 09:37:09;;;;;;;;;;;17.80;92.10;;;;;;4315881;33;44587;-80
2021/09/12 09:39:47;;;;;;;;;;;17.80;92.10;;;;;;4314691;33;43950;-80
2021/09/12 09:42:33;;;;;;;;;;;17.80;92.00;;;;;;4314963;33;43964;-80
2021/09/12 09:45:10;;;;;;;;;;;17.80;92.00;;;;;;4302854;33;44141;-80
2021/09/12 09:47:38;;;;;;;;;;;17.80;92.00;;;;;;4303289;33;20045;-80
2021/09/12 09:50:16;;;;;;;;;;;17.80;92.00;;;;;;4315956;33;43611;-80
2021/09/12 09:52:54;;;;;;;;;;;17.80;91.90;;;;;;4315910;33;45920;-80
2021/09/12 09:55:27;;;;;;;;;;;17.80;91.90;;;;;;4314373;33;44250;-80
2021/09/12 09:58:03;;;;;;;;;;;17.80;91.90;;;;;;4314884;33;43127;-80
2021/09/12 10:00:38;;;;;;;;;;;17.80;91.90;;;;;;4317220;33;45645;-80
2021/09/12 10:03:21;;;;;;;;;;;17.90;91.90;;;;;;4317246;33;44184;-80
2021/09/12 10:05:49;;;;;;;;;;;17.90;91.90;;;;;;4318056;33;43321;-80
2021/09/12 10:08:21;;;;;;;;;;;17.90;91.80;;;;;;4305556;33;44145;-80
2021/09/12 10:10:54;;;;;;;;;;;17.90;91.90;;;;;;4318547;33;42778;-80
2021/09/12 10:13:30;;;;;;;;;;;18.00;91.90;;;;;;4317135;33;44684;-80
2021/09/12 10:16:02;;;;;;;;;;;18.00;91.90;;;;;;4318616;33;43047;-80
2021/09/12 10:18:38;;;;;;;;;;;18.00;91.80;;;;;;4306234;33;20006;-80
2021/09/12 10:21:25;;;;;;;;;;;18.00;91.80;;;;;;4318413;33;43482;-80
2021/09/12 10:24:01;;;;;;;;;;;18.10;91.80;;;;;;4318032;33;44560;-81
2021/09/12 10:26:43;;;;;;;;;;;18.10;91.70;;;;;;4317657;33;43200;-80
2021/09/12 10:29:29;;;;;;;;;;;18.10;91.70;;;;;;4317329;33;45705;-80
2021/09/12 10:32:16;;;;;;;;;;;18.20;91.70;;;;;;4317404;33;43181;-80
2021/09/12 10:35:06;;;;;;;;;;;18.20;91.60;;;;;;4317024;33;45982;-80
2021/09/12 10:37:34;;;;;;;;;;;18.20;91.60;;;;;;4312484;33;43839;-80
2021/09/12 10:40:06;;;;;;;;;;;18.20;91.60;;;;;;4317044;33;44297;-80
2021/09/12 10:42:42;;;;;;;;;;;18.30;91.60;;;;;;4317824;33;44294;-80
2021/09/12 10:45:28;;;;;;;;;;;18.30;91.60;;;;;;4304738;33;45028;-80
2021/09/12 10:48:21;;;;;;;;;;;18.30;91.50;;;;;;4317104;33;44150;-80
2021/09/12 10:50:54;;;;;;;;;;;18.40;91.50;;;;;;4304410;33;20037;-80
2021/09/12 10:53:42;;;;;;;;;;;18.50;91.50;;;;;;4317173;33;44254;-80
2021/09/12 10:56:15;;;;;;;;;;;18.40;91.50;;;;;;4304452;33;45353;-80
2021/09/12 10:58:52;;;;;;;;;;;18.50;91.40;;;;;;4304983;33;43052;-80
2021/09/12 11:01:34;;;;;;;;;;;18.50;91.40;;;;;;4316199;33;42664;-79
2021/09/12 11:04:05;;;;;;;;;;;18.60;91.40;;;;;;4316444;33;44955;-80
2021/09/12 11:06:47;;;;;;;;;;;18.60;91.30;;;;;;4316991;33;45828;-80
2021/09/12 11:09:22;;;;;;;;;;;18.60;91.30;;;;;;4317994;33;43471;-80
2021/09/12 11:12:01;;;;;;;;;;;18.70;91.30;;;;;;4316060;33;44759;-81
2021/09/12 11:14:29;;;;;;;;;;;18.70;91.20;;;;;;4318039;33;44158;-80
2021/09/12 11:17:14;;;;;;;;;;;18.70;91.20;;;;;;4316728;33;44594;-80
2021/09/12 11:19:52;;;;;;;;;;;18.80;91.30;;;;;;4316332;33;42738;-81
2021/09/12 11:22:22;;;;;;;;;;;18.80;91.20;;;;;;4304720;33;45497;-80
2021/09/12 11:24:59;;;;;;;;;;;18.80;91.20;;;;;;4317447;33;43721;-80
2021/09/12 11:27:27;;;;;;;;;;;18.90;91.20;;;;;;4317633;33;44633;-80
2021/09/12 11:29:54;;;;;;;;;;;18.90;91.10;;;;;;4316450;33;44092;-80
2021/09/12 11:32:26;;;;;;;;;;;18.90;91.10;;;;;;4317097;33;43064;-80
2021/09/12 11:34:59;;;;;;;;;;;19.00;91.10;;;;;;4317605;33;43806;-80
2021/09/12 11:37:29;;;;;;;;;;;19.00;91.10;;;;;;4317685;33;45951;-81
2021/09/12 11:39:56;;;;;;;;;;;19.00;91.10;;;;;;4317163;33;45775;-80
2021/09/12 11:42:28;;;;;;;;;;;19.10;91.00;;;;;;4317319;33;41873;-80
2021/09/12 11:44:57;;;;;;;;;;;19.10;91.00;;;;;;4316445;33;43854;-79
2021/09/12 11:47:26;;;;;;;;;;;19.20;91.00;;;;;;4303812;33;43090;-80
2021/09/12 11:50:05;;;;;;;;;;;19.20;91.00;;;;;;4316333;33;43310;-80
2021/09/12 11:52:42;;;;;;;;;;;19.20;90.90;;;;;;4317213;33;20041;-79
2021/09/12 11:55:20;;;;;;;;;;;19.30;91.00;;;;;;4316212;33;44446;-80
2021/09/12 11:58:02;;;;;;;;;;;19.30;91.00;;;;;;4316141;33;45079;-80
2021/09/12 12:00:35;;;;;;;;;;;19.30;91.00;;;;;;4317191;33;43168;-79
2021/09/12 12:03:05;;;;;;;;;;;19.40;91.00;;;;;;4316777;33;43606;-79
2021/09/12 12:05:35;;;;;;;;;;;19.40;90.90;;;;;;4315866;33;43312;-80
2021/09/12 12:08:06;;;;;;;;;;;19.40;91.00;;;;;;4317232;33;43641;-79
2021/09/12 12:10:39;;;;;;;;;;;19.50;91.00;;;;;;4315591;33;42980;-79
2021/09/12 12:13:07;;;;;;;;;;;19.50;91.00;;;;;;4317000;33;44836;-79
2021/09/12 12:15:38;;;;;;;;;;;19.50;91.00;;;;;;4316715;33;43958;-79
2021/09/12 12:18:16;;;;;;;;;;;19.60;91.00;;;;;;4316878;33;44008;-79
2021/09/12 12:20:44;;;;;;;;;;;19.60;91.00;;;;;;4315318;33;43325;-79
2021/09/12 12:23:21;;;;;;;;;;;19.60;91.00;;;;;;4317761;33;20006;-79
2021/09/12 12:25:49;;;;;;;;;;;19.60;91.00;;;;;;4316402;33;42751;-79
2021/09/12 12:28:23;;;;;;;;;;;19.70;91.00;;;;;;4315529;33;43478;-78
2021/09/12 12:31:10;;;;;;;;;;;19.70;91.00;;;;;;4316856;33;44173;-79
2021/09/12 12:33:38;;;;;;;;;;;19.70;91.00;;;;;;4303751;33;44612;-79
2021/09/12 12:36:09;;;;;;;;;;;19.70;91.00;;;;;;4315466;33;43563;-79
2021/09/12 12:38:42;;;;;;;;;;;19.80;91.10;;;;;;4315584;33;42729;-79
2021/09/12 12:41:17;;;;;;;;;;;19.80;91.10;;;;;;4316462;33;43762;-78
2021/09/12 12:43:52;;;;;;;;;;;19.80;91.10;;;;;;4316599;33;42633;-79
2021/09/12 12:46:42;;;;;;;;;;;19.80;91.10;;;;;;4315517;33;45971;-79
2021/09/12 12:49:29;;;;;;;;;;;19.80;91.20;;;;;;4315544;33;44921;-78
2021/09/12 12:52:19;;;;;;;;;;;19.80;91.20;;;;;;4315421;33;44674;-79
2021/09/12 12:54:51;;;;;;;;;;;19.80;91.20;;;;;;4316431;33;20533;-78
2021/09/12 12:57:27;;;;;;;;;;;19.80;91.20;;;;;;4303164;33;42865;-79
2021/09/12 12:59:59;;;;;;;;;;;19.80;91.20;;;;;;4316423;33;44653;-79
2021/09/12 13:02:29;;;;;;;;;;;19.90;91.30;;;;;;4314793;33;44053;-79
2021/09/12 13:05:02;;;;;;;;;;;19.90;91.30;;;;;;4315953;33;43081;-78
2021/09/12 13:07:35;;;;;;;;;;;19.90;91.40;;;;;;4316397;33;44043;-79
2021/09/12 13:10:12;;;;;;;;;;;19.90;91.30;;;;;;4315866;33;44130;-79
2021/09/12 13:12:48;;;;;;;;;;;19.90;91.30;;;;;;4314996;33;43890;-79
2021/09/12 13:15:26;;;;;;;;;;;20.00;91.30;;;;;;4314759;33;42514;-79
2021/09/12 13:17:56;;;;;;;;;;;20.00;91.30;;;;;;4303250;33;43544;-79
2021/09/12 13:20:32;;;;;;;;;;;20.00;91.30;;;;;;4315685;33;43992;-79
2021/09/12 13:23:08;;;;;;;;;;;20.00;91.20;;;;;;4315124;33;44157;-79
2021/09/12 13:25:46;;;;;;;;;;;20.10;91.20;;;;;;4315663;33;20002;-79
2021/09/12 13:28:24;;;;;;;;;;;20.10;91.20;;;;;;4316008;33;43117;-79
2021/09/12 13:30:59;;;;;;;;;;;20.10;91.20;;;;;;4315019;33;44730;-79
2021/09/12 13:33:33;;;;;;;;;;;20.10;91.20;;;;;;4314876;33;45354;-80
2021/09/12 13:36:03;;;;;;;;;;;20.10;91.20;;;;;;4315928;33;44230;-79
2021/09/12 13:38:42;;;;;;;;;;;20.10;91.10;;;;;;4315956;33;44028;-79
2021/09/12 13:41:16;;;;;;;;;;;20.10;91.10;;;;;;4315444;33;44023;-79
2021/09/12 13:43:49;;;;;;;;;;;20.20;91.10;;;;;;4314852;33;45697;-79
2021/09/12 13:46:24;;;;;;;;;;;20.20;91.10;;;;;;4315981;33;45757;-79
2021/09/12 13:49:00;;;;;;;;;;;20.20;91.10;;;;;;4315981;33;44046;-79
2021/09/12 13:51:39;;;;;;;;;;;20.20;91.10;;;;;;4314838;33;43922;-79
2021/09/12 13:54:09;;;;;;;;;;;20.20;91.10;;;;;;4314771;33;44140;-79
2021/09/12 13:56:45;;;;;;;;;;;20.30;91.10;;;;;;4303928;33;20050;-79
2021/09/12 13:59:18;;;;;;;;;;;20.30;91.10;;;;;;4315497;33;44665;-79
2021/09/12 14:01:53;;;;;;;;;;;20.40;91.20;;;;;;4302202;33;44292;-79
2021/09/12 14:04:23;;;;;;;;;;;20.40;91.10;;;;;;4316077;33;43286;-79
2021/09/12 14:06:58;;;;;;;;;;;20.40;91.40;;;;;;4315848;33;43380;-80
2021/09/12 14:09:33;;;;;;;;;;;20.40;91.00;;;;;;4314616;33;43023;-79
2021/09/12 14:12:11;;;;;;;;;;;20.50;91.00;;;;;;4315764;33;44394;-80
2021/09/12 14:14:46;;;;;;;;;;;20.50;91.00;;;;;;4315284;33;42899;-80
2021/09/12 14:17:21;;;;;;;;;;;20.50;90.90;;;;;;4315761;33;44497;-79
2021/09/12 14:19:58;;;;;;;;;;;20.60;90.90;;;;;;4314710;33;44130;-80
2021/09/12 14:22:39;;;;;;;;;;;20.50;90.80;;;;;;4302305;33;45066;-79
2021/09/12 14:25:14;;;;;;;;;;;20.60;90.80;;;;;;4315558;33;43792;-79
2021/09/12 14:27:49;;;;;;;;;;;20.60;90.80;;;;;;4316822;33;20010;-79
2021/09/12 14:30:22;;;;;;;;;;;20.60;90.80;;;;;;4314567;33;44231;-80
2021/09/12 14:32:57;;;;;;;;;;;20.60;90.80;;;;;;4315948;33;43037;-80
2021/09/12 14:35:26;;;;;;;;;;;20.70;90.80;;;;;;4314337;33;43952;-80
2021/09/12 14:38:01;;;;;;;;;;;20.70;90.80;;;;;;4314554;33;44761;-79
2021/09/12 14:40:29;;;;;;;;;;;20.70;90.80;;;;;;4315522;33;44386;-79
2021/09/12 14:43:04;;;;;;;;;;;20.70;90.70;;;;;;4315416;33;42751;-81
2021/09/12 14:45:35;;;;;;;;;;;20.80;90.80;;;;;;4314159;33;42775;-80
2021/09/12 14:48:05;;;;;;;;;;;20.80;90.70;;;;;;4317157;33;46068;-79